Historique des mesures à Cassis (13260), France
Quotidien Résumé Juin 18, 2017 Unités:  US    Métrique   Métrique/US
« Précédent (Jour)
Suivant (Jour) »
Quotidien Hebdomadaire Mensuel Annuel Période au choix
  Maximum: Minimum: Moyenne:
Température: 32 °F 79.2 °F 84.2 °F
Point de rosée: 32 °F 54.7 °F 59.2 °F
Humidité: Humidity % 34 % 40 %
Vitesse du vent: WindSpeedKMH mph 0.0 mph 1.9 mph
Rafales: WindSpeedGustKMH mph - -
Vent:- - SSE
Pression: 0 in 29.8 in -
Précipitations: 0 in    
Historical Graphs
 
 
Mesures pour : Juin 18, 2017
Heure Temperature Point de rosée Pression Vent Vitesse du vent Rafales Humidité Pluie (par heure) Conditions
32 °F 32 °F 0 in Calm     Humidity % 0 in SoftwareType W/m2
00:11 81.9 °F 58.3 °F 29.8 in Calm   2.6 mph 45 % 0 in open2300-1.11 W/m2
01:10 81.5 °F 57.9 °F 29.8 in Calm     45 % 0 in open2300-1.11 W/m2
02:10 81 °F 57.6 °F 29.8 in Calm     45 % 0 in open2300-1.11 W/m2
03:10 80.4 °F 57 °F 29.8 in NNW 1.4 mph 1.4 mph 45 % 0 in open2300-1.11 W/m2
04:10 79.7 °F 55.8 °F 29.8 in NW 5.0 mph 5.0 mph 44 % 0 in open2300-1.11 W/m2
05:11 79.3 °F 55.6 °F 29.8 in Calm   2.1 mph 44 % 0 in open2300-1.11 W/m2
06:10 79.2 °F 54.7 °F 29.8 in North 1.8 mph 1.8 mph 43 % 0 in open2300-1.11 W/m2
07:10 79.7 °F 55.2 °F 29.8 in Calm     43 % 0 in open2300-1.11 W/m2
08:10 85.3 °F 59.5 °F 29.8 in Calm     42 % 0 in open2300-1.11 W/m2
09:10 84.4 °F 59.4 °F 29.9 in SE 2.1 mph 3.2 mph 43 % 0 in open2300-1.11 W/m2
10:10 88.5 °F 62.4 °F 29.9 in Calm   4.0 mph 42 % 0 in open2300-1.11 W/m2
11:10 95.5 °F 63.3 °F 29.9 in NNE 6.1 mph 10.1 mph 35 % 0 in open2300-1.11 W/m2
12:10 97.5 °F 64.2 °F 29.9 in SE 3.2 mph 6.4 mph 34 % 0 in open2300-1.11 W/m2
13:10 95.7 °F 65.1 °F 29.9 in SSW 3.5 mph 4.0 mph 37 % 0 in open2300-1.11 W/m2
14:11 94.1 °F 66 °F 29.9 in Calm   2.9 mph 40 % 0 in open2300-1.11 W/m2
15:10 94.3 °F 63.9 °F 29.9 in East 2.6 mph 10.5 mph 37 % 0 in open2300-1.11 W/m2
16:10 93.6 °F 60.8 °F 29.9 in SSE 5.0 mph 8.7 mph 34 % 0 in open2300-1.11 W/m2
17:10 91.8 °F 63.1 °F 29.9 in SSE 5.0 mph 5.0 mph 39 % 0 in open2300-1.11 W/m2
18:10 88.9 °F 62.8 °F 29.9 in SSE 5.0 mph 6.1 mph 42 % 0 in open2300-1.11 W/m2
19:10 87.6 °F 61.2 °F 29.9 in East 1.4 mph 7.9 mph 41 % 0 in open2300-1.11 W/m2
20:10 86.7 °F 61 °F 29.9 in South 3.2 mph 12.2 mph 42 % 0 in open2300-1.11 W/m2
21:10 84.7 °F 60.4 °F 29.9 in Calm     44 % 0 in open2300-1.11 W/m2
22:10 82 °F 61 °F 30 in East 2.6 mph 2.6 mph 49 % 0 in open2300-1.11 W/m2
23:10 80.4 °F 60.6 °F 30 in Calm     51 % 0 in open2300-1.11 W/m2
Observations météo à CASSIS
WU-History script by Weather Underground - 1 mb